Time;durP1;ratioP1;P1;durP2;ratioP2;P2;SDS_P1;SDS_P2;PMS_P1;PMS_P2;Temp;Humidity;BMP_temperature;BMP_pressure;BME280_temperature;BME280_humidity;BME280_pressure;Samples;Min_cycle;Max_cycle;Signal;HPM_P1;HPM_P2
2022/04/01 00:02:04;;;;;;;1.33;0.55;;;;;;;1.55;66.09;100190.06;5029398;28;20091;-87
2022/04/01 00:04:30;;;;;;;4.28;0.68;;;;;;;1.41;66.14;100196.38;5012976;28;20030;-85
2022/04/01 00:06:56;;;;;;;1.83;0.90;;;;;;;1.39;67.19;100226.38;5029118;28;20036;-85
2022/04/01 00:09:22;;;;;;;1.70;0.90;;;;;;;1.41;67.38;100232.38;5028361;28;20014;-86
2022/04/01 00:11:48;;;;;;;3.25;1.08;;;;;;;1.44;67.32;100232.97;5020791;28;20465;-87
2022/04/01 00:14:13;;;;;;;2.78;0.93;;;;;;;1.52;66.73;100224.47;5029353;28;20029;-86
2022/04/01 00:16:39;;;;;;;7.43;0.73;;;;;;;1.50;66.41;100172.94;5015644;28;20117;-87
2022/04/01 00:19:05;;;;;;;2.23;0.77;;;;;;;1.43;66.49;100160.28;5028696;28;20725;-86
2022/04/01 00:21:31;;;;;;;5.32;1.38;;;;;;;1.46;66.10;100175.81;5029066;28;20056;-86
2022/04/01 00:23:56;;;;;;;4.15;0.90;;;;;;;1.45;65.96;100154.88;5028872;28;20034;-87
2022/04/01 00:26:21;;;;;;;0.60;0.47;;;;;;;1.49;65.99;100161.56;5030113;28;20036;-87
2022/04/01 00:28:47;;;;;;;2.70;1.37;;;;;;;1.41;65.99;100149.03;5012215;28;20114;-86
2022/04/01 00:31:13;;;;;;;1.83;0.70;;;;;;;1.42;66.01;100160.38;4996186;28;20117;-85
2022/04/01 00:33:39;;;;;;;1.90;1.02;;;;;;;1.31;66.51;100168.25;5012121;28;20025;-86
2022/04/01 00:36:05;;;;;;;4.13;0.70;;;;;;;1.32;66.63;100183.91;5028647;28;20375;-86
2022/04/01 00:38:30;;;;;;;2.67;0.52;;;;;;;1.37;67.08;100205.44;5028723;28;20034;-86
2022/04/01 00:40:58;;;;;;;1.50;0.60;;;;;;;1.44;67.02;100211.91;4995748;28;20045;-86
2022/04/01 00:43:31;;;;;;;2.83;0.70;;;;;;;1.36;66.64;100176.63;5028869;28;20268;-88
2022/04/01 00:45:57;;;;;;;4.18;0.90;;;;;;;1.36;66.67;100166.09;5012108;28;20025;-89
2022/04/01 00:48:23;;;;;;;4.15;1.10;;;;;;;1.36;66.56;100166.09;5028799;28;20028;-86
2022/04/01 00:50:48;;;;;;;2.60;0.57;;;;;;;1.34;66.67;100155.72;5028525;28;20038;-86
2022/04/01 00:53:14;;;;;;;2.97;1.30;;;;;;;1.35;66.65;100164.44;5028636;28;20104;-86
2022/04/01 00:55:40;;;;;;;1.95;0.60;;;;;;;1.39;66.13;100144.84;5032476;28;20057;-85
2022/04/01 00:58:09;;;;;;;4.32;0.50;;;;;;;1.35;65.96;100133.72;5015790;28;20022;-86
2022/04/01 01:00:36;;;;;;;2.13;0.77;;;;;;;1.40;65.93;100141.25;5032161;28;20034;-85
2022/04/01 01:03:05;;;;;;;1.90;0.55;;;;;;;1.30;65.53;100087.69;5025564;28;20052;-86
2022/04/01 01:05:31;;;;;;;1.75;0.80;;;;;;;1.25;65.11;100073.09;5012668;28;20033;-86
2022/04/01 01:07:57;;;;;;;3.13;0.50;;;;;;;1.26;65.33;100081.81;5031732;28;20031;-87
2022/04/01 01:10:23;;;;;;;;;;;;;;;1.23;65.73;100101.31;5032110;28;20033;-85
2022/04/01 01:12:49;;;;;;;4.40;0.80;;;;;;;1.24;66.18;100124.03;5032208;28;19955;-86
2022/04/01 01:15:18;;;;;;;2.13;0.85;;;;;;;1.27;66.18;100121.16;5015326;28;20032;-86
2022/04/01 01:17:44;;;;;;;1.73;0.60;;;;;;;1.23;66.53;100127.59;5011005;28;20490;-85
2022/04/01 01:20:17;;;;;;;3.33;1.15;;;;;;;1.29;66.58;100128.06;5031753;28;20444;-85
2022/04/01 01:22:47;;;;;;;3.67;0.57;;;;;;;1.20;66.59;100125.22;5015727;28;20099;-85
2022/04/01 01:25:13;;;;;;;1.48;0.52;;;;;;;1.26;66.59;100148.41;5032368;28;20588;-85
2022/04/01 01:27:39;;;;;;;;;;;;;;;1.29;66.48;100131.56;5032082;28;20055;-88
2022/04/01 01:30:07;;;;;;;4.45;1.15;;;;;;;1.25;66.83;100133.56;5031922;28;20426;-90
2022/04/01 01:32:34;;;;;;;4.97;1.00;;;;;;;1.21;67.14;100150.53;5023884;28;20037;-86
2022/04/01 01:35:08;;;;;;;2.85;0.68;;;;;;;1.25;67.46;100165.13;5031601;28;20079;-85
2022/04/01 01:37:33;;;;;;;2.53;0.90;;;;;;;1.19;67.65;100159.50;5031585;28;20401;-86
2022/04/01 01:39:59;;;;;;;1.70;1.10;;;;;;;1.14;67.92;100162.47;5037025;28;20014;-85
2022/04/01 01:42:25;;;;;;;1.55;0.70;;;;;;;1.26;67.70;100174.72;5036477;28;20494;-85
2022/04/01 01:44:50;;;;;;;2.30;1.03;;;;;;;1.17;67.70;100143.00;4998590;28;20025;-85
2022/04/01 01:47:15;;;;;;;4.22;1.00;;;;;;;1.19;67.75;100151.63;5014940;28;20029;-85
2022/04/01 01:54:42;;;;;;;3.07;0.60;;;;;;;1.21;67.75;100147.91;5003820;28;20018;-90
2022/04/01 01:55:11;;;;;;;1.75;0.95;;;;;;;1.22;67.46;100144.34;5033858;28;20041;-86
2022/04/01 01:57:36;;;;;;;3.78;0.82;;;;;;;1.22;67.88;100157.50;5019427;28;20394;-89
2022/04/01 02:00:10;;;;;;;3.78;1.45;;;;;;;1.26;67.80;100165.97;5032982;28;20052;-87
2022/04/01 02:02:38;;;;;;;;;;;;;;;1.16;68.07;100150.06;5034164;28;20049;-86
2022/04/01 02:05:06;;;;;;;3.33;0.70;;;;;;;1.13;67.74;100137.16;5015855;28;20376;-85
2022/04/01 02:07:32;;;;;;;2.38;0.80;;;;;;;1.12;68.07;100145.97;5015304;28;20087;-86
2022/04/01 02:09:58;;;;;;;2.20;0.80;;;;;;;1.07;68.30;100161.28;5014606;28;20075;-88
2022/04/01 02:12:23;;;;;;;6.13;0.80;;;;;;;1.18;68.53;100179.72;5031500;28;20025;-86
2022/04/01 02:14:49;;;;;;;2.83;1.40;;;;;;;1.19;68.58;100176.09;5015097;28;20049;-86
2022/04/01 02:17:14;;;;;;;2.22;0.88;;;;;;;1.10;68.45;100163.69;5031024;28;20323;-85
2022/04/01 02:19:40;;;;;;;5.00;0.90;;;;;;;1.09;68.69;100172.50;5014525;28;20030;-86
2022/04/01 02:22:07;;;;;;;;;;;;;;;1.13;68.70;100175.75;5015011;28;20029;-87
2022/04/01 02:24:33;;;;;;;7.03;1.25;;;;;;;1.11;68.81;100157.47;5014522;28;19999;-86
2022/04/01 02:26:59;;;;;;;4.03;0.73;;;;;;;1.05;68.78;100165.81;5030707;28;20064;-86
2022/04/01 02:29:26;;;;;;;1.98;0.77;;;;;;;1.08;69.47;100191.88;5030699;28;20252;-86
2022/04/01 02:32:17;;;;;;;2.10;1.00;;;;;;;1.07;69.40;100177.03;5008431;28;20156;-87
2022/04/01 02:34:42;;;;;;;1.40;0.67;;;;;;;1.07;69.14;100171.78;5031016;28;20038;-87
2022/04/01 02:37:08;;;;;;;5.43;0.82;;;;;;;1.02;69.29;100171.31;5014237;28;20041;-86
2022/04/01 02:39:33;;;;;;;6.97;0.93;;;;;;;1.05;69.46;100184.19;5022047;28;20074;-87
2022/04/01 02:41:59;;;;;;;3.92;1.90;;;;;;;0.95;69.71;100186.69;5030434;28;20052;-87
2022/04/01 02:44:24;;;;;;;3.47;0.73;;;;;;;1.08;69.96;100207.66;5030638;28;20559;-85
2022/04/01 02:46:50;;;;;;;3.43;0.90;;;;;;;1.20;69.31;100203.28;5030429;28;20763;-86
2022/04/01 02:49:17;;;;;;;4.95;0.70;;;;;;;1.16;69.27;100186.88;5030253;28;20025;-86
2022/04/01 02:51:56;;;;;;;2.75;0.70;;;;;;;1.11;69.20;100178.50;5022256;28;20041;-87
2022/04/01 02:54:21;;;;;;;2.25;0.70;;;;;;;1.11;69.34;100186.38;5021857;28;20021;-86
2022/04/01 02:56:49;;;;;;;2.90;0.90;;;;;;;1.16;69.54;100197.38;5029687;28;20026;-86
2022/04/01 02:59:15;;;;;;;4.72;1.02;;;;;;;1.15;69.66;100184.38;5029700;28;20129;-87
2022/04/01 03:01:41;;;;;;;4.33;0.80;;;;;;;1.14;69.33;100180.06;5013734;28;20033;-86
2022/04/01 03:04:09;;;;;;;3.67;1.00;;;;;;;1.10;69.69;100186.50;5013732;28;20029;-86
2022/04/01 03:06:42;;;;;;;2.65;0.68;;;;;;;1.07;69.73;100198.06;5029916;28;20508;-86
2022/04/01 03:09:07;;;;;;;2.85;0.88;;;;;;;1.13;70.05;100212.56;5012953;28;20091;-86
2022/04/01 03:11:38;;;;;;;6.68;1.30;;;;;;;1.12;69.54;100192.47;5030641;28;20110;-87
2022/04/01 03:14:10;;;;;;;3.25;0.80;;;;;;;1.14;69.61;100188.78;5031577;28;20045;-88
2022/04/01 03:17:08;;;;;;;2.58;0.65;;;;;;;1.05;69.40;100179.81;5030820;28;20040;-86
2022/04/01 03:19:35;;;;;;;;;;;;;;;1.17;69.43;100187.69;5032143;28;20038;-86
2022/04/01 03:22:00;;;;;;;1.88;0.93;;;;;;;1.07;69.26;100150.75;5015017;28;19916;-87
2022/04/01 03:24:26;;;;;;;0.98;0.63;;;;;;;1.06;68.91;100154.34;5014496;28;20025;-89
2022/04/01 03:26:52;;;;;;;3.97;0.88;;;;;;;1.02;69.46;100166.03;4998660;28;20600;-86
2022/04/01 03:29:18;;;;;;;6.43;1.83;;;;;;;1.09;69.68;100179.56;5013331;28;20044;-86
2022/04/01 03:31:45;;;;;;;3.40;1.00;;;;;;;1.07;69.68;100187.56;5029459;28;20029;-85
2022/04/01 03:34:11;;;;;;;7.57;2.63;;;;;;;0.99;69.64;100174.16;5029445;28;20108;-86
2022/04/01 03:36:37;;;;;;;6.27;1.00;;;;;;;1.02;69.82;100195.78;5000042;28;20132;-87
2022/04/01 03:39:04;;;;;;;4.10;1.02;;;;;;;1.03;69.90;100199.25;5029368;28;20025;-86
2022/04/01 03:41:49;;;;;;;6.00;0.90;;;;;;;1.03;70.05;100201.88;5029141;28;20029;-85
2022/04/01 03:44:17;;;;;;;1.67;0.60;;;;;;;1.04;70.20;100206.19;5012710;28;20029;-86
2022/04/01 03:47:05;;;;;;;3.63;1.67;;;;;;;1.00;70.11;100196.84;5021489;28;20030;-86
2022/04/01 03:49:36;;;;;;;1.80;0.55;;;;;;;1.08;69.66;100185.75;5012553;28;20465;-86
2022/04/01 03:52:02;;;;;;;1.98;0.70;;;;;;;1.05;69.36;100169.28;5029111;28;20044;-86
2022/04/01 03:54:32;;;;;;;1.27;0.80;;;;;;;1.00;69.28;100160.06;5028730;28;20021;-87
2022/04/01 03:57:02;;;;;;;3.20;0.80;;;;;;;1.09;68.50;100154.09;5021499;28;20041;-85
2022/04/01 03:59:54;;;;;;;8.55;1.60;;;;;;;1.11;68.19;100141.69;5030047;28;20040;-87
2022/04/01 04:02:42;;;;;;;2.88;0.70;;;;;;;1.06;68.17;100130.69;5028045;28;20627;-87
2022/04/01 04:05:09;;;;;;;1.63;0.70;;;;;;;1.16;67.73;100130.81;5005761;28;20032;-86
2022/04/01 04:07:36;;;;;;;5.85;0.82;;;;;;;1.13;67.15;100108.22;5028781;28;20406;-85
2022/04/01 04:10:07;;;;;;;1.95;0.63;;;;;;;1.04;67.35;100098.41;5021033;28;20521;-86
2022/04/01 04:12:42;;;;;;;4.50;0.68;;;;;;;1.02;66.96;100071.41;5018060;28;20057;-85
2022/04/01 04:15:08;;;;;;;1.45;0.60;;;;;;;1.06;66.84;100078.09;5028743;28;20475;-87
2022/04/01 04:17:37;;;;;;;4.07;1.27;;;;;;;1.07;67.05;100082.41;5028790;28;20453;-86
2022/04/01 04:20:14;;;;;;;2.58;0.90;;;;;;;1.00;67.00;100060.16;5008348;28;20056;-85
2022/04/01 04:23:29;;;;;;;3.90;0.98;;;;;;;1.09;66.88;100095.44;5012608;28;20025;-86
2022/04/01 04:26:11;;;;;;;1.70;0.88;;;;;;;1.13;66.44;100081.09;5009927;28;20498;-87
2022/04/01 04:28:48;;;;;;;2.05;0.95;;;;;;;1.12;65.94;100053.13;5011836;28;20037;-85
2022/04/01 04:31:33;;;;;;;3.50;0.90;;;;;;;1.05;65.48;100037.84;5026497;28;20045;-85
2022/04/01 04:34:10;;;;;;;6.35;1.95;;;;;;;1.09;65.65;100067.34;5028554;28;20123;-85
2022/04/01 04:36:38;;;;;;;3.60;1.00;;;;;;;1.07;65.89;100078.94;4999771;28;20057;-86
2022/04/01 04:39:07;;;;;;;2.83;1.02;;;;;;;1.07;66.46;100111.31;5004332;28;20617;-86
2022/04/01 04:41:35;;;;;;;1.40;0.80;;;;;;;1.06;66.75;100125.44;5025223;28;20116;-86
2022/04/01 04:44:04;;;;;;;4.15;0.90;;;;;;;1.08;67.02;100146.31;5020954;28;20018;-86
2022/04/01 04:46:33;;;;;;;3.50;0.85;;;;;;;1.09;67.71;100177.78;5028659;28;20029;-86
2022/04/01 04:48:59;;;;;;;2.75;0.60;;;;;;;0.99;68.01;100192.56;5011910;28;20025;-85
2022/04/01 04:51:30;;;;;;;2.28;1.00;;;;;;;1.03;68.73;100228.16;5012459;28;20084;-86
2022/04/01 04:54:20;;;;;;;1.60;0.73;;;;;;;1.05;69.09;100252.56;5000606;28;20030;-85
2022/04/01 04:57:01;;;;;;;2.17;0.93;;;;;;;1.04;69.61;100271.94;5013867;28;20039;-85
2022/04/01 04:59:30;;;;;;;2.03;1.38;;;;;;;1.04;69.85;100285.06;5045061;22;20048;-75
2022/04/01 05:02:05;;;;;;;3.22;0.90;;;;;;;1.09;69.91;100290.00;5042039;28;20135;-75
2022/04/01 05:04:46;;;;;;;4.82;1.20;;;;;;;1.03;70.29;100286.00;5031342;28;20056;-75
2022/04/01 05:07:30;;;;;;;2.42;0.95;;;;;;;1.07;70.38;100308.50;5020512;28;20037;-75
2022/04/01 05:10:36;;;;;;;6.97;1.00;;;;;;;1.12;70.58;100327.41;5013484;28;20095;-75
2022/04/01 05:13:29;;;;;;;3.70;1.13;;;;;;;1.09;71.01;100332.06;5018565;28;20041;-74
2022/04/01 05:16:07;;;;;;;1.65;0.95;;;;;;;1.07;71.38;100345.31;5026281;28;20054;-74
2022/04/01 05:18:50;;;;;;;6.50;1.35;;;;;;;1.07;71.96;100371.59;5006721;28;20037;-75
2022/04/01 05:21:22;;;;;;;1.38;0.95;;;;;;;1.10;72.59;100397.69;5006806;28;20025;-75
2022/04/01 05:24:01;;;;;;;3.55;1.17;;;;;;;1.16;72.95;100410.38;5026312;28;20043;-75
2022/04/01 05:26:41;;;;;;;2.60;1.10;;;;;;;1.22;73.53;100428.34;5026084;28;20379;-75
2022/04/01 05:29:25;;;;;;;2.33;1.10;;;;;;;1.30;73.88;100450.63;5040427;28;20029;-75
2022/04/01 05:31:59;;;;;;;7.18;1.52;;;;;;;1.31;74.12;100453.16;5008663;28;20048;-74
2022/04/01 05:34:43;;;;;;;3.17;1.20;;;;;;;1.31;74.46;100458.44;5026275;28;20040;-75
2022/04/01 05:37:08;;;;;;;3.28;1.02;;;;;;;1.34;74.88;100468.72;5019737;28;20424;-75
2022/04/01 05:39:37;;;;;;;2.33;0.90;;;;;;;1.41;75.20;100474.38;5026546;28;20009;-75
2022/04/01 05:42:08;;;;;;;2.50;1.02;;;;;;;1.30;75.11;100445.38;5021184;28;20032;-75
2022/04/01 05:44:42;;;;;;;2.72;1.08;;;;;;;1.39;75.17;100473.66;5011056;28;20040;-75
2022/04/01 05:47:08;;;;;;;2.70;1.00;;;;;;;1.43;75.26;100459.34;5030435;28;20025;-75
2022/04/01 05:49:39;;;;;;;;;;;;;;;1.51;75.05;100464.88;5030466;28;20013;-75
2022/04/01 05:52:04;;;;;;;2.80;1.25;;;;;;;1.55;74.77;100447.09;5040517;28;19919;-75
2022/04/01 05:54:34;;;;;;;4.95;1.48;;;;;;;1.54;74.25;100435.69;5014094;28;20050;-75
2022/04/01 05:56:59;;;;;;;7.53;1.23;;;;;;;1.59;74.54;100440.63;5030406;28;20375;-74
2022/04/01 05:59:25;;;;;;;3.67;1.13;;;;;;;1.53;73.80;100420.88;5013097;28;20013;-75
2022/04/01 06:02:08;;;;;;;1.63;1.05;;;;;;;1.62;73.87;100425.47;5029878;28;20132;-75
2022/04/01 06:05:00;;;;;;;5.32;1.00;;;;;;;1.64;73.28;100406.94;5028885;28;20121;-75
2022/04/01 06:07:44;;;;;;;2.20;1.08;;;;;;;1.67;72.83;100389.13;5028555;28;20025;-75
2022/04/01 06:10:26;;;;;;;2.00;1.73;;;;;;;1.76;71.92;100377.06;5022843;28;20017;-75
2022/04/01 06:13:33;;;;;;;1.80;0.85;;;;;;;1.76;71.69;100363.06;5041171;28;20487;-75
2022/04/01 06:16:47;;;;;;;;;;;;;;;1.83;71.04;100357.22;4982707;28;20050;-75
2022/04/01 06:19:34;;;;;;;2.45;1.20;;;;;;;1.86;70.53;100335.09;5024544;28;19916;-75
2022/04/01 06:22:14;;;;;;;4.43;1.90;;;;;;;1.99;70.05;100337.63;5029861;28;20171;-75
2022/04/01 06:25:11;;;;;;;3.00;1.90;;;;;;;1.88;69.39;100288.44;5029064;28;20545;-75
2022/04/01 06:27:41;;;;;;;5.07;1.50;;;;;;;2.01;69.50;100330.44;5021798;28;20498;-75
2022/04/01 06:30:09;;;;;;;4.97;1.67;;;;;;;2.04;69.01;100304.72;5029477;28;20066;-75
2022/04/01 06:33:03;;;;;;;3.63;1.45;;;;;;;2.16;68.44;100304.75;5029657;28;20541;-75
2022/04/01 06:36:03;;;;;;;11.13;1.30;;;;;;;2.11;67.95;100274.31;5013880;28;20040;-75
2022/04/01 06:38:32;;;;;;;4.80;1.60;;;;;;;2.17;67.44;100269.53;5029633;28;20095;-75
2022/04/01 06:41:05;;;;;;;8.57;2.67;;;;;;;2.17;67.01;100251.09;5029187;28;20012;-75
2022/04/01 06:43:38;;;;;;;1.95;1.23;;;;;;;2.36;67.07;100272.38;5014029;28;20094;-75
2022/04/01 06:46:38;;;;;;;5.15;1.33;;;;;;;2.29;66.11;100222.00;5034463;28;20536;-75
2022/04/01 06:49:14;;;;;;;2.67;1.02;;;;;;;2.58;65.89;100268.06;5014333;28;20064;-75
2022/04/01 06:52:19;;;;;;;7.45;1.80;;;;;;;2.66;64.93;100234.84;5046711;28;20048;-75
2022/04/01 06:55:14;;;;;;;3.28;1.10;;;;;;;2.82;64.83;100237.06;5033181;28;20043;-75
2022/04/01 06:57:52;;;;;;;2.22;1.38;;;;;;;2.92;64.33;100232.72;5031138;28;20536;-75
2022/04/01 07:00:40;;;;;;;5.05;1.85;;;;;;;3.10;63.65;100230.38;5031089;28;20082;-75
2022/04/01 07:03:07;;;;;;;6.47;1.15;;;;;;;3.15;63.10;100200.97;5046869;28;20037;-75
2022/04/01 07:05:34;;;;;;;4.72;1.50;;;;;;;3.34;62.73;100224.84;5028958;28;20091;-75
2022/04/01 07:08:04;;;;;;;3.47;1.20;;;;;;;3.06;62.49;100170.91;5046591;28;20044;-75
2022/04/01 07:10:30;;;;;;;3.53;1.20;;;;;;;3.34;62.34;100216.09;5028660;28;20381;-75
2022/04/01 07:12:55;;;;;;;;;;;;;;;3.28;61.23;100143.59;5047103;28;20033;-75
2022/04/01 07:15:21;;;;;;;4.35;1.52;;;;;;;3.26;60.95;100139.41;5046587;28;19923;-75
2022/04/01 07:17:46;;;;;;;4.28;1.00;;;;;;;3.45;60.92;100159.78;5028596;28;20064;-75
2022/04/01 07:20:13;;;;;;;6.70;2.60;;;;;;;3.56;60.17;100130.66;5045698;28;20009;-75
2022/04/01 07:22:40;;;;;;;2.65;1.20;;;;;;;3.25;59.68;100074.41;5045884;28;20497;-75
2022/04/01 07:25:08;;;;;;;6.18;1.73;;;;;;;3.73;60.22;100180.19;5046028;28;20443;-75
2022/04/01 07:27:34;;;;;;;4.10;1.88;;;;;;;3.88;59.66;100150.78;5028175;28;20087;-75
2022/04/01 07:30:00;;;;;;;2.13;1.17;;;;;;;4.29;59.46;100207.94;5027901;28;20494;-75
2022/04/01 07:32:34;;;;;;;3.95;1.30;;;;;;;4.18;58.92;100152.53;5027707;28;20040;-75
2022/04/01 07:35:00;;;;;;;2.60;1.88;;;;;;;3.96;58.14;100079.66;5045329;28;20033;-75
2022/04/01 07:37:27;;;;;;;5.18;1.50;;;;;;;4.11;58.08;100103.88;5043181;28;20055;-75
2022/04/01 07:39:54;;;;;;;2.97;1.30;;;;;;;4.22;57.81;100123.06;5042869;28;20078;-75
2022/04/01 07:42:21;;;;;;;3.58;1.20;;;;;;;4.31;57.78;100131.13;5043972;28;20082;-75
2022/04/01 07:44:48;;;;;;;5.07;1.45;;;;;;;4.53;57.49;100153.84;5044190;28;20037;-75
2022/04/01 07:47:14;;;;;;;4.47;1.35;;;;;;;4.22;57.45;100112.50;5044429;28;20564;-75
2022/04/01 07:49:43;;;;;;;;;;;;;;;4.21;57.16;100081.78;5026585;28;20041;-75
2022/04/01 07:54:37;;;;;;;2.58;1.20;;;;;;;4.48;56.63;100106.69;5023783;28;20057;-75
2022/04/01 07:57:04;;;;;;;2.85;1.20;;;;;;;4.53;56.63;100109.75;5009348;28;20033;-78
2022/04/01 07:59:29;;;;;;;2.17;1.20;;;;;;;4.62;56.02;100087.75;4993260;28;20056;-79
2022/04/01 08:01:55;;;;;;;5.68;1.65;;;;;;;4.02;56.05;100003.31;5026555;28;20061;-79
2022/04/01 08:04:20;;;;;;;3.33;1.53;;;;;;;4.40;56.02;100080.94;4993083;28;20074;-78
2022/04/01 08:06:46;;;;;;;5.23;1.73;;;;;;;4.48;55.39;100053.81;5009487;28;20565;-78
2022/04/01 08:09:11;;;;;;;3.23;2.10;;;;;;;4.29;55.16;99982.47;4993326;28;20060;-77
2022/04/01 08:11:36;;;;;;;4.67;1.53;;;;;;;4.04;55.34;99979.41;5009929;28;20577;-78
2022/04/01 08:14:02;;;;;;;4.87;1.83;;;;;;;4.24;55.59;100041.03;5009064;28;20029;-78
2022/04/01 08:16:28;;;;;;;5.90;1.63;;;;;;;4.23;55.22;100007.63;5009416;28;20075;-78
2022/04/01 08:18:53;;;;;;;3.78;1.50;;;;;;;4.04;55.19;99966.22;5023871;28;20045;-78
2022/04/01 08:21:19;;;;;;;5.07;2.40;;;;;;;4.28;55.62;100074.09;4993014;28;20049;-78
2022/04/01 08:23:45;;;;;;;4.60;1.63;;;;;;;4.22;55.64;100072.03;4992801;28;20297;-79
2022/04/01 08:26:11;;;;;;;6.20;2.00;;;;;;;4.44;55.24;100102.63;5010340;28;20044;-78
2022/04/01 08:28:37;;;;;;;6.78;1.80;;;;;;;4.26;54.94;100028.53;5009098;28;20044;-77
2022/04/01 08:31:03;;;;;;;3.33;1.92;;;;;;;4.29;54.82;100048.53;5027940;28;20073;-78
2022/04/01 08:33:29;;;;;;;5.93;1.50;;;;;;;4.55;55.09;100105.16;4993622;28;20037;-79
2022/04/01 08:35:56;;;;;;;5.00;1.75;;;;;;;3.91;55.02;99987.63;5009001;28;20126;-78
2022/04/01 08:38:22;;;;;;;6.70;2.15;;;;;;;4.46;55.68;100165.94;5027869;28;20052;-79
2022/04/01 08:40:48;;;;;;;8.27;3.03;;;;;;;4.85;57.76;100288.47;5011089;28;20116;-78
2022/04/01 08:43:23;;;;;;;3.58;1.92;;;;;;;4.60;54.66;100050.03;5026722;28;20084;-78
2022/04/01 08:45:49;;;;;;;2.15;1.58;;;;;;;5.03;57.19;100318.59;5028143;28;20033;-79
2022/04/01 08:48:15;;;;;;;2.27;1.23;;;;;;;5.03;56.36;100257.75;5008849;28;20028;-79
2022/04/01 08:50:41;;;;;;;3.47;1.90;;;;;;;5.43;56.96;100367.94;5001482;28;20034;-78
2022/04/01 08:53:07;;;;;;;2.35;1.50;;;;;;;5.32;55.15;100208.41;4997102;28;20103;-79
2022/04/01 08:55:33;;;;;;;3.13;1.58;;;;;;;5.00;54.18;100070.16;5023554;28;20367;-78
2022/04/01 08:57:58;;;;;;;3.90;1.60;;;;;;;4.86;54.52;100094.41;5029177;28;20032;-78
2022/04/01 09:00:23;;;;;;;3.63;1.57;;;;;;;4.65;54.11;100034.59;5009935;28;20028;-79
2022/04/01 09:02:59;;;;;;;3.03;1.50;;;;;;;4.71;54.45;100082.63;4993779;28;20490;-80
2022/04/01 09:05:24;;;;;;;17.98;3.72;;;;;;;4.59;54.88;100101.25;5008015;28;20034;-79
2022/04/01 09:08:01;;;;;;;5.40;2.20;;;;;;;4.45;55.06;100112.25;5017454;28;20401;-77
2022/04/01 09:10:27;;;;;;;4.28;1.75;;;;;;;4.15;55.23;100047.16;5009836;28;20039;-78
2022/04/01 09:12:52;;;;;;;4.10;1.73;;;;;;;4.91;54.56;100176.00;5001852;28;20025;-79
2022/04/01 09:15:21;;;;;;;6.67;2.00;;;;;;;5.07;53.93;100155.09;5011568;28;20524;-79
2022/04/01 09:17:48;;;;;;;3.78;2.70;;;;;;;5.32;54.51;100227.78;5030940;28;20037;-79
2022/04/01 09:20:15;;;;;;;5.07;1.98;;;;;;;5.08;51.81;99987.44;4995500;28;20036;-78
2022/04/01 09:22:43;;;;;;;5.25;1.83;;;;;;;5.47;51.65;100083.38;5032967;28;20030;-78
2022/04/01 09:25:15;;;;;;;2.83;1.77;;;;;;;5.77;52.15;100129.09;4998838;28;20626;-78
2022/04/01 09:27:49;;;;;;;4.63;1.88;;;;;;;5.49;51.55;100017.88;5031431;28;20037;-77
2022/04/01 09:30:23;;;;;;;3.47;2.53;;;;;;;4.19;51.92;99835.38;5014745;28;20021;-78
2022/04/01 09:33:01;;;;;;;3.28;1.77;;;;;;;5.22;51.60;100044.31;4998566;28;20037;-77
2022/04/01 09:35:32;;;;;;;3.95;1.90;;;;;;;5.31;50.00;99934.09;4999757;28;20033;-78
2022/04/01 09:38:04;;;;;;;3.60;1.85;;;;;;;4.72;48.90;99743.16;5000648;28;20095;-79
2022/04/01 09:40:35;;;;;;;3.15;1.65;;;;;;;4.31;49.74;99727.69;5015822;28;20185;-78
2022/04/01 09:43:01;;;;;;;3.53;1.73;;;;;;;4.54;51.24;99907.00;5016916;28;20033;-78
2022/04/01 09:45:26;;;;;;;;;;;;;;;5.02;51.85;100080.59;5001850;28;20120;-78
2022/04/01 09:48:04;;;;;;;;;;;;;;;5.35;50.94;100057.25;5008314;28;19960;-79
2022/04/01 09:50:35;;;;;;;8.90;2.28;;;;;;;5.95;49.09;100022.34;5015618;28;20020;-79
2022/04/01 09:53:10;;;;;;;5.10;2.25;;;;;;;5.84;48.25;99912.97;4999614;28;20041;-79
2022/04/01 09:55:37;;;;;;;2.45;1.52;;;;;;;5.46;48.57;99872.56;5017077;28;20366;-79
2022/04/01 09:58:04;;;;;;;5.63;2.15;;;;;;;5.32;48.54;99841.31;4994009;28;20025;-78
2022/04/01 10:00:30;;;;;;;4.18;2.03;;;;;;;5.80;48.22;99940.72;5005787;28;20026;-78
2022/04/01 10:02:55;;;;;;;4.35;2.20;;;;;;;6.17;47.91;99963.59;5001454;28;20026;-77
2022/04/01 10:05:21;;;;;;;5.30;2.10;;;;;;;6.03;47.56;99888.13;5012509;28;20473;-78
2022/04/01 10:07:46;;;;;;;3.73;2.07;;;;;;;5.71;48.23;99905.41;4994997;28;20041;-78
2022/04/01 10:10:12;;;;;;;3.10;1.30;;;;;;;6.22;47.08;99923.38;5011505;28;20099;-77
2022/04/01 10:12:45;;;;;;;2.33;1.80;;;;;;;6.19;45.96;99775.28;5011171;28;20612;-78
2022/04/01 10:15:11;;;;;;;5.07;1.88;;;;;;;6.06;46.18;99807.50;5012048;28;20037;-77
2022/04/01 10:17:39;;;;;;;3.28;1.70;;;;;;;5.87;46.22;99787.31;4995321;28;20029;-77
2022/04/01 10:20:07;;;;;;;3.78;1.70;;;;;;;6.54;45.58;99857.31;5029726;28;20029;-78
2022/04/01 10:22:33;;;;;;;7.38;1.40;;;;;;;6.67;44.86;99801.19;5010630;28;20026;-78
2022/04/01 10:25:03;;;;;;;4.82;2.08;;;;;;;6.49;44.64;99742.13;5010249;28;20037;-78
2022/04/01 10:27:40;;;;;;;3.67;2.10;;;;;;;6.83;44.02;99773.03;5009199;28;20021;-77
2022/04/01 10:30:08;;;;;;;3.45;1.67;;;;;;;6.20;43.46;99543.69;5022105;28;20041;-77
2022/04/01 10:32:37;;;;;;;3.67;1.40;;;;;;;6.36;42.86;99570.22;4994434;28;20021;-78
2022/04/01 10:35:04;;;;;;;3.08;1.55;;;;;;;6.64;43.40;99715.78;5023163;28;20558;-78
2022/04/01 10:37:31;;;;;;;2.75;1.67;;;;;;;6.26;43.22;99588.94;4993384;28;20026;-78
2022/04/01 10:40:00;;;;;;;3.85;1.42;;;;;;;6.86;43.53;99759.44;5020016;28;20103;-78
2022/04/01 10:42:32;;;;;;;3.35;1.58;;;;;;;6.31;43.00;99554.81;4993890;28;20560;-77
2022/04/01 10:45:01;;;;;;;3.40;1.75;;;;;;;6.51;43.71;99679.97;5028896;28;20041;-77
2022/04/01 10:53:47;;;;;;;1.52;1.27;;;;;;;6.82;44.40;99779.34;5009247;28;20037;-78
2022/04/01 10:56:26;;;;;;;2.30;1.33;;;;;;;6.64;45.24;99821.88;5026429;28;20056;-77
2022/04/01 10:59:03;;;;;;;4.22;1.77;;;;;;;6.26;45.72;99808.94;5013042;28;20045;-78
2022/04/01 11:01:28;;;;;;;2.15;1.40;;;;;;;5.84;45.77;99732.81;5030221;28;20044;-78
2022/04/01 11:04:00;;;;;;;2.80;1.70;;;;;;;5.97;46.58;99809.28;5014080;28;20029;-78
2022/04/01 11:06:28;;;;;;;3.75;1.13;;;;;;;5.76;48.13;99927.94;5014833;28;20099;-78
2022/04/01 11:08:55;;;;;;;2.08;1.65;;;;;;;6.44;48.98;100115.63;5014369;28;20032;-78
2022/04/01 11:11:21;;;;;;;3.55;2.00;;;;;;;6.89;47.97;100122.66;4993882;28;20402;-77
2022/04/01 11:14:04;;;;;;;7.38;1.83;;;;;;;6.68;47.45;100019.53;5022262;28;20029;-77
2022/04/01 11:16:52;;;;;;;4.28;1.77;;;;;;;6.58;46.98;99966.59;5013869;28;20048;-77
2022/04/01 11:19:25;;;;;;;6.68;2.33;;;;;;;6.55;47.58;99988.09;4988848;28;20387;-78
2022/04/01 11:21:51;;;;;;;2.65;1.65;;;;;;;6.40;47.12;99934.78;5013232;28;20045;-78
2022/04/01 11:24:37;;;;;;;5.15;1.90;;;;;;;6.36;47.04;99927.31;5012565;28;20093;-78
2022/04/01 11:27:23;;;;;;;5.85;2.50;;;;;;;5.57;46.85;99706.50;5004364;28;20037;-78
2022/04/01 11:30:04;;;;;;;;;;;;;;;5.68;48.69;99941.94;5010366;28;20478;-79
2022/04/01 11:32:29;;;;;;;5.85;2.28;;;;;;;5.17;49.76;99911.59;5030346;28;20431;-77
2022/04/01 11:34:56;;;;;;;3.47;1.90;;;;;;;5.29;50.30;99981.88;5007574;28;20533;-78
2022/04/01 11:37:24;;;;;;;3.88;2.22;;;;;;;5.56;50.83;100102.84;5012393;28;20036;-77
2022/04/01 11:39:49;;;;;;;7.22;2.13;;;;;;;5.65;51.21;100138.22;5028349;28;20036;-78
2022/04/01 11:42:15;;;;;;;4.07;1.93;;;;;;;5.35;51.21;100084.53;5012988;28;20033;-79
2022/04/01 11:44:54;;;;;;;3.17;1.63;;;;;;;5.54;51.43;100125.16;5029675;28;20276;-79
2022/04/01 11:47:34;;;;;;;3.95;1.80;;;;;;;5.83;51.19;100170.06;4995889;28;20501;-78
2022/04/01 11:50:10;;;;;;;3.53;1.92;;;;;;;6.13;50.49;100184.88;5004283;28;20049;-78
2022/04/01 11:52:40;;;;;;;3.67;2.03;;;;;;;6.17;50.57;100162.41;4992332;28;20079;-78
2022/04/01 11:55:18;;;;;;;3.03;1.67;;;;;;;6.06;50.53;100139.59;4991512;28;20041;-79
2022/04/01 11:57:43;;;;;;;2.53;1.77;;;;;;;5.89;50.48;100104.06;4992824;28;20478;-78
2022/04/01 12:00:15;;;;;;;3.97;2.33;;;;;;;5.90;50.35;100105.75;4994976;28;20044;-77
2022/04/01 12:02:42;;;;;;;4.45;2.20;;;;;;;6.15;50.17;100148.47;5008290;28;20922;-78
2022/04/01 12:05:08;;;;;;;7.85;1.98;;;;;;;5.76;50.45;100055.94;4995317;28;20424;-79
2022/04/01 12:10:22;;;;;;;4.00;2.33;;;;;;;5.30;51.03;100023.25;5007911;28;20056;-77